Terminal Aerodrome Forecast
Issued by NWS Pittsburgh, PA

Current Version | Previous Version | Text Only | Print | Product List | Glossary Off
Versions: 1 2 3 4 5 6 7 8 9 10 11 12 13 14 15 16 17 18 19 20 21 22 23 24 25 26 27 28 29 30

000
FTUS41 KPBZ 161300 AAB
TAFPIT
TAF AMD
KPIT 161356Z 1614/1718 16007KT P6SM -SHRA BKN018
     FM161800 21008KT P6SM -SHRA OVC015
     FM162200 24010G18KT P6SM OVC008
     FM171300 26012G20KT P6SM OVC015=

USA.gov is the U.S. government's official web portal to all federal, state and local government web resources and services.